Time;durP1;ratioP1;P1;durP2;ratioP2;P2;SDS_P1;SDS_P2;PMS_P1;PMS_P2;Temp;Humidity;BMP_temperature;BMP_pressure;BME280_temperature;BME280_humidity;BME280_pressure;Samples;Min_cycle;Max_cycle;Signal;HPM_P1;HPM_P2
2022/05/16 00:00:43;;;;;;;10.48;3.90;;;;;;;18.87;48.75;101085.19;3570826;40;20096;-66
2022/05/16 00:03:09;;;;;;;11.07;3.63;;;;;;;18.78;49.23;101068.72;3571599;40;20053;-66
2022/05/16 00:05:36;;;;;;;10.60;4.43;;;;;;;18.83;48.74;101076.47;3570591;40;20571;-66
2022/05/16 00:08:02;;;;;;;10.48;3.60;;;;;;;18.78;48.93;101082.34;3574351;40;20134;-66
2022/05/16 00:10:28;;;;;;;9.82;3.60;;;;;;;18.65;48.80;101057.22;3574504;40;20157;-66
2022/05/16 00:12:54;;;;;;;9.88;3.47;;;;;;;18.75;48.71;101082.63;3571041;40;20399;-66
2022/05/16 00:15:23;;;;;;;8.07;3.50;;;;;;;18.74;48.97;101078.19;3569846;40;20077;-66
2022/05/16 00:17:48;;;;;;;12.07;3.72;;;;;;;18.71;49.08;101070.28;3569927;40;20073;-65
2022/05/16 00:20:15;;;;;;;11.27;3.92;;;;;;;18.68;48.73;101064.22;3574176;40;20394;-67
2022/05/16 00:22:41;;;;;;;10.63;4.13;;;;;;;18.69;48.78;101065.97;3575057;40;20174;-66
2022/05/16 00:25:12;;;;;;;8.32;3.50;;;;;;;18.63;49.01;101058.34;3577034;40;20097;-67
2022/05/16 00:27:38;;;;;;;10.55;3.20;;;;;;;18.62;49.37;101057.50;3571349;40;20053;-66
2022/05/16 00:30:09;;;;;;;7.45;3.30;;;;;;;18.60;49.60;101061.38;3572990;40;20048;-66
2022/05/16 00:32:35;;;;;;;12.85;4.00;;;;;;;18.53;49.49;101053.75;3572219;40;20118;-67
2022/05/16 00:35:02;;;;;;;9.48;3.60;;;;;;;18.56;49.19;101060.78;3572976;40;20060;-66
2022/05/16 00:37:27;;;;;;;9.23;3.60;;;;;;;18.55;50.10;101059.03;3571007;40;20048;-66
2022/05/16 00:39:53;;;;;;;9.85;3.72;;;;;;;18.48;49.23;101038.84;3572143;40;20158;-66
2022/05/16 00:42:20;;;;;;;10.85;3.97;;;;;;;18.52;49.35;101051.16;3572522;40;20052;-66
2022/05/16 00:44:46;;;;;;;9.60;4.10;;;;;;;18.51;49.34;101058.47;3570802;40;20100;-66
2022/05/16 00:47:12;;;;;;;11.43;3.95;;;;;;;18.51;50.07;101054.91;3571105;40;20108;-66
2022/05/16 00:49:45;;;;;;;10.77;3.92;;;;;;;18.36;49.34;101035.38;3570984;40;20053;-67
2022/05/16 00:52:15;;;;;;;8.57;3.80;;;;;;;18.48;49.34;101052.44;3571215;40;20061;-67
2022/05/16 00:54:57;;;;;;;11.70;3.60;;;;;;;18.45;49.45;101050.88;3570406;40;20473;-66
2022/05/16 00:57:31;;;;;;;12.90;4.10;;;;;;;18.44;49.54;101048.31;3570418;40;20053;-65
2022/05/16 01:00:22;;;;;;;9.65;3.58;;;;;;;18.45;49.66;101044.56;3571672;40;20547;-66
2022/05/16 01:05:44;;;;;;;9.27;3.47;;;;;;;18.32;50.11;101021.19;3569832;40;20100;-66
2022/05/16 01:08:16;;;;;;;11.88;3.83;;;;;;;18.29;50.35;101031.50;3571776;40;20053;-68
2022/05/16 01:10:43;;;;;;;13.25;4.10;;;;;;;18.24;50.60;101022.91;3570604;40;20068;-66
2022/05/16 01:13:10;;;;;;;9.70;3.72;;;;;;;18.22;50.82;101030.34;3575136;40;20562;-67
2022/05/16 01:15:45;;;;;;;9.90;3.80;;;;;;;18.25;50.63;101041.81;3571736;40;20048;-67
2022/05/16 01:18:19;;;;;;;6.40;3.50;;;;;;;18.22;50.78;101041.22;3577638;40;20049;-67
2022/05/16 01:21:12;;;;;;;14.60;4.30;;;;;;;18.17;51.18;101047.06;3572340;40;20061;-66
2022/05/16 01:23:58;;;;;;;11.32;3.95;;;;;;;18.13;51.35;101052.94;3571110;40;20324;-67
2022/05/16 01:26:26;;;;;;;10.52;4.05;;;;;;;18.11;50.80;101055.81;3572854;40;20049;-65
2022/05/16 01:28:54;;;;;;;9.05;4.10;;;;;;;18.10;50.90;101052.22;3571228;40;20067;-66
2022/05/16 01:31:21;;;;;;;11.50;4.32;;;;;;;18.04;51.24;101050.03;3572406;40;20141;-66
2022/05/16 01:33:47;;;;;;;8.23;3.95;;;;;;;18.07;51.56;101049.75;3572059;40;20181;-68
2022/05/16 01:36:12;;;;;;;9.00;4.05;;;;;;;18.05;51.48;101042.75;3573970;40;20065;-66
2022/05/16 01:38:39;;;;;;;7.63;3.85;;;;;;;18.04;51.57;101041.03;3571460;40;20291;-66
2022/05/16 01:41:14;;;;;;;9.50;3.72;;;;;;;18.00;51.46;101045.03;3574394;40;20075;-67
2022/05/16 01:43:45;;;;;;;10.48;3.92;;;;;;;17.96;52.22;101043.59;3571624;40;20073;-66
2022/05/16 01:46:35;;;;;;;13.32;4.32;;;;;;;17.94;52.14;101037.41;3574105;40;20048;-66
2022/05/16 01:49:02;;;;;;;9.10;4.03;;;;;;;17.85;51.85;101018.19;3579725;40;20138;-66
2022/05/16 01:51:28;;;;;;;9.52;3.88;;;;;;;17.79;52.09;101012.44;3571564;40;20084;-67
2022/05/16 01:53:54;;;;;;;8.27;4.03;;;;;;;17.87;52.39;101031.66;3575287;40;20582;-66
2022/05/16 01:56:20;;;;;;;12.30;4.30;;;;;;;17.59;52.45;100979.69;3575468;40;20395;-66
2022/05/16 01:58:45;;;;;;;9.75;3.80;;;;;;;17.93;51.89;101024.81;3571028;40;20125;-66
2022/05/16 02:01:13;;;;;;;13.82;4.45;;;;;;;17.95;51.81;101028.25;3574063;40;20102;-67
2022/05/16 02:03:44;;;;;;;8.70;3.92;;;;;;;17.98;52.29;101019.81;3573927;40;20298;-66
2022/05/16 02:06:10;;;;;;;9.20;3.85;;;;;;;17.97;52.68;101021.66;3572691;40;20056;-66
2022/05/16 02:08:36;;;;;;;8.30;4.05;;;;;;;17.98;52.40;101015.25;3574157;40;20060;-67
2022/05/16 02:11:05;;;;;;;8.27;3.80;;;;;;;17.93;52.22;101008.50;3575203;40;20061;-66
2022/05/16 02:13:34;;;;;;;9.50;3.72;;;;;;;17.94;52.65;101011.06;3570311;40;20060;-67
2022/05/16 02:16:00;;;;;;;9.85;3.95;;;;;;;17.88;52.38;100999.88;3577932;40;20064;-66
2022/05/16 02:18:26;;;;;;;9.05;3.88;;;;;;;17.82;52.44;101001.28;3574655;40;20048;-67
2022/05/16 02:24:38;;;;;;;8.52;3.83;;;;;;;17.84;52.74;101005.59;3570633;40;20195;-67
2022/05/16 02:26:22;;;;;;;10.98;3.88;;;;;;;17.79;53.55;101002.44;3572136;40;20059;-67
2022/05/16 02:28:48;;;;;;;8.93;4.22;;;;;;;17.70;53.74;100996.94;3572918;40;20065;-67
2022/05/16 02:31:14;;;;;;;11.32;3.92;;;;;;;17.74;53.45;101004.66;3575120;40;20154;-66
2022/05/16 02:33:39;;;;;;;11.20;4.05;;;;;;;17.72;53.53;100995.78;3571803;40;20049;-64
2022/05/16 02:36:05;;;;;;;9.15;3.90;;;;;;;17.69;53.11;100985.19;3570781;40;20056;-65
2022/05/16 02:38:30;;;;;;;8.90;4.00;;;;;;;17.77;52.98;100992.69;3571554;40;20055;-65
2022/05/16 02:40:56;;;;;;;8.90;4.22;;;;;;;17.80;52.70;100986.97;3571912;40;20064;-65
2022/05/16 02:43:21;;;;;;;11.38;3.85;;;;;;;17.82;53.01;100980.41;3571978;40;20388;-65
2022/05/16 02:45:47;;;;;;;6.75;4.00;;;;;;;17.82;52.61;100980.41;3571777;40;20057;-64
2022/05/16 02:48:13;;;;;;;12.13;3.70;;;;;;;17.85;52.78;100980.09;3573812;40;20045;-65
2022/05/16 02:50:38;;;;;;;8.23;3.47;;;;;;;17.82;52.69;100969.53;3568807;40;20164;-65
2022/05/16 02:53:04;;;;;;;7.72;3.60;;;;;;;17.75;52.60;100956.59;3572355;40;20118;-65
2022/05/16 02:55:31;;;;;;;10.05;3.78;;;;;;;17.85;52.65;100977.38;3572160;40;20047;-64
2022/05/16 02:57:57;;;;;;;10.73;3.70;;;;;;;17.90;52.50;100971.56;3570439;40;20059;-65
2022/05/16 03:00:23;;;;;;;6.50;3.38;;;;;;;17.90;52.24;100965.25;3574102;40;20433;-65
2022/05/16 03:02:48;;;;;;;9.25;3.80;;;;;;;17.86;52.92;100960.09;3570535;40;20610;-65
2022/05/16 03:05:15;;;;;;;7.72;3.70;;;;;;;17.67;52.71;100924.66;3573148;40;20047;-65
2022/05/16 03:07:41;;;;;;;7.25;3.78;;;;;;;17.83;53.10;100949.50;3569994;40;20076;-66
2022/05/16 03:10:11;;;;;;;7.00;3.70;;;;;;;17.83;53.00;100949.50;3577543;40;20089;-65
2022/05/16 03:12:37;;;;;;;11.05;4.10;;;;;;;17.71;52.72;100934.25;3571288;40;20048;-64
2022/05/16 03:15:04;;;;;;;9.38;3.88;;;;;;;17.78;52.69;100950.91;3571151;40;20057;-65
2022/05/16 03:17:29;;;;;;;8.32;3.60;;;;;;;17.82;52.76;100955.94;3570245;40;20061;-65
2022/05/16 03:19:55;;;;;;;8.05;3.47;;;;;;;17.80;53.33;100959.78;3567829;40;20068;-65
2022/05/16 03:22:20;;;;;;;9.65;3.97;;;;;;;17.69;53.03;100946.25;3574545;40;20056;-64
2022/05/16 03:24:46;;;;;;;8.30;3.75;;;;;;;17.71;52.97;100945.13;3574352;40;20068;-65
2022/05/16 03:27:12;;;;;;;7.85;3.70;;;;;;;17.78;52.91;100959.91;3574435;40;20056;-64
2022/05/16 03:29:38;;;;;;;7.43;3.78;;;;;;;17.71;52.83;100944.28;3572864;40;20061;-65
2022/05/16 03:32:04;;;;;;;6.32;3.75;;;;;;;17.83;52.74;100963.09;3572671;40;20048;-65
2022/05/16 03:34:30;;;;;;;8.40;3.83;;;;;;;17.74;52.35;100939.41;3572533;40;20052;-66
2022/05/16 03:36:56;;;;;;;9.30;3.65;;;;;;;17.90;52.45;100960.69;3570385;40;20272;-66
2022/05/16 03:42:06;;;;;;;9.15;3.78;;;;;;;17.94;52.39;100961.25;3572073;40;20419;-67
2022/05/16 03:44:32;;;;;;;7.55;3.63;;;;;;;17.92;53.05;100963.25;3571028;40;20060;-67
2022/05/16 03:46:58;;;;;;;6.90;3.92;;;;;;;17.91;52.70;100956.09;3572301;40;20056;-66
2022/05/16 03:49:24;;;;;;;10.02;4.03;;;;;;;17.83;52.92;100954.06;3573572;40;20052;-67
2022/05/16 03:51:50;;;;;;;9.73;4.00;;;;;;;17.72;53.53;100941.41;3570478;40;20053;-66
2022/05/16 03:54:17;;;;;;;7.90;3.80;;;;;;;17.80;53.39;100952.50;3569818;40;20063;-66
2022/05/16 03:56:43;;;;;;;8.18;3.90;;;;;;;17.62;54.17;100924.19;3578344;40;20041;-67
2022/05/16 03:59:11;;;;;;;7.90;3.70;;;;;;;17.76;53.62;100959.19;3575623;40;20057;-66
2022/05/16 04:01:37;;;;;;;7.53;3.92;;;;;;;17.70;53.82;100946.13;3576140;40;20056;-66
2022/05/16 04:04:03;;;;;;;7.80;3.40;;;;;;;17.35;53.99;100890.34;3574964;40;20060;-66
2022/05/16 04:06:29;;;;;;;8.70;3.70;;;;;;;17.63;53.74;100931.34;3578030;40;20064;-66
2022/05/16 04:08:54;;;;;;;7.28;3.95;;;;;;;17.60;54.32;100935.22;3573713;40;20488;-65
2022/05/16 04:11:21;;;;;;;8.20;3.67;;;;;;;17.68;53.91;100948.13;3573976;40;20135;-64
2022/05/16 04:13:47;;;;;;;6.07;3.80;;;;;;;17.69;53.72;100951.69;3574463;40;20048;-64
2022/05/16 04:16:13;;;;;;;8.52;3.83;;;;;;;17.64;54.26;100957.56;3574922;40;20111;-64
2022/05/16 04:18:41;;;;;;;8.13;3.67;;;;;;;17.68;54.95;100969.88;3572243;40;20410;-65
2022/05/16 04:21:07;;;;;;;7.30;3.47;;;;;;;17.64;55.02;100961.13;3575350;40;20056;-65
2022/05/16 04:23:33;;;;;;;8.25;3.53;;;;;;;17.65;54.64;100967.41;3575075;40;20306;-67
2022/05/16 04:25:59;;;;;;;8.38;3.88;;;;;;;17.66;54.83;100957.41;3574023;40;20380;-66
2022/05/16 04:28:25;;;;;;;11.20;4.00;;;;;;;17.56;54.17;100952.78;3571530;40;20064;-65
2022/05/16 04:30:50;;;;;;;12.70;4.00;;;;;;;17.70;54.51;100970.59;3573312;40;20127;-66
2022/05/16 04:33:18;;;;;;;9.13;3.95;;;;;;;17.68;54.47;100967.16;3573592;40;20076;-65
2022/05/16 04:35:44;;;;;;;10.85;4.18;;;;;;;17.74;53.96;100966.59;3572427;40;20045;-64
2022/05/16 04:38:10;;;;;;;8.18;3.92;;;;;;;17.77;54.73;100963.63;3571690;40;20409;-65
2022/05/16 04:42:40;;;;;;;9.88;3.78;;;;;;;17.79;54.18;100958.94;3571478;40;20072;-65
2022/05/16 04:43:21;;;;;;;9.13;4.03;;;;;;;17.94;53.31;100969.41;3571274;40;20052;-66
2022/05/16 04:45:46;;;;;;;12.32;4.00;;;;;;;17.98;53.43;100966.28;3571338;40;20071;-66
2022/05/16 04:48:12;;;;;;;7.18;3.70;;;;;;;17.99;53.28;100964.44;3570644;40;20068;-65
2022/05/16 04:50:38;;;;;;;13.40;4.40;;;;;;;18.10;53.79;100973.31;3570539;40;20067;-65
2022/05/16 04:53:03;;;;;;;9.00;4.45;;;;;;;18.16;53.27;100973.75;3570154;40;20384;-65
2022/05/16 04:55:30;;;;;;;14.50;4.72;;;;;;;18.25;53.67;100981.09;3571429;40;20098;-65
2022/05/16 04:57:57;;;;;;;12.52;4.32;;;;;;;18.30;53.73;100982.38;3571297;40;20131;-65
2022/05/16 05:00:25;;;;;;;10.18;4.32;;;;;;;18.40;52.69;100989.72;3573105;40;20513;-64
2022/05/16 05:02:52;;;;;;;7.35;3.83;;;;;;;18.46;52.64;100980.97;3569320;40;20053;-65
2022/05/16 05:05:18;;;;;;;7.90;4.00;;;;;;;18.52;52.32;100981.25;3572033;40;20052;-66
2022/05/16 05:07:46;;;;;;;9.25;4.35;;;;;;;18.50;52.10;100966.91;3571140;40;20056;-65
2022/05/16 05:15:47;;;;;;;12.60;4.30;;;;;;;18.77;52.39;100988.03;3561174;40;20068;-60
2022/05/16 05:18:13;;;;;;;9.05;4.03;;;;;;;18.85;52.30;100986.44;3559751;40;20065;-60
2022/05/16 05:20:39;;;;;;;7.82;3.83;;;;;;;18.82;51.67;100957.63;3560276;40;20138;-61
2022/05/16 05:23:05;;;;;;;8.18;4.25;;;;;;;19.00;51.53;100980.41;3560511;40;20046;-59
2022/05/16 05:25:32;;;;;;;8.63;3.90;;;;;;;19.14;51.86;100994.56;3560545;40;20049;-59
2022/05/16 05:28:02;;;;;;;6.03;3.80;;;;;;;19.21;51.71;100984.78;3558653;40;20187;-59
2022/05/16 05:30:30;;;;;;;11.40;3.78;;;;;;;19.28;50.57;100976.88;3560252;40;20146;-60
2022/05/16 05:32:57;;;;;;;5.93;3.78;;;;;;;19.40;50.56;100978.44;3558642;40;20397;-60
2022/05/16 05:35:25;;;;;;;6.13;3.88;;;;;;;19.27;50.17;100937.88;3559887;40;20367;-59
2022/05/16 05:37:54;;;;;;;9.00;3.53;;;;;;;19.52;49.96;100971.78;3559811;40;20057;-60
2022/05/16 05:40:20;;;;;;;7.22;3.90;;;;;;;19.62;49.98;100977.22;3558603;40;20368;-60
2022/05/16 05:42:46;;;;;;;9.63;3.97;;;;;;;19.66;50.87;100990.44;3559304;40;20053;-60
2022/05/16 05:45:12;;;;;;;9.52;3.45;;;;;;;19.73;50.03;100996.16;3558922;40;20050;-59
2022/05/16 05:47:38;;;;;;;6.05;3.47;;;;;;;19.79;50.57;101002.84;3549320;40;20108;-59
2022/05/16 05:50:06;;;;;;;11.07;3.90;;;;;;;19.83;50.27;100996.13;3559979;40;20063;-59
2022/05/16 05:52:32;;;;;;;6.32;3.47;;;;;;;19.83;49.82;101007.88;3561135;40;20426;-60
2022/05/16 05:54:58;;;;;;;7.35;3.65;;;;;;;19.84;50.18;101006.00;3560129;40;20072;-60
2022/05/16 05:57:25;;;;;;;7.10;3.58;;;;;;;19.86;49.55;101014.91;3561958;40;20045;-61
2022/05/16 05:59:53;;;;;;;15.10;8.50;;;;;;;19.90;49.29;101013.59;3558363;40;20155;-60
2022/05/16 06:02:21;;;;;;;6.72;4.05;;;;;;;19.93;49.96;101014.13;3559394;40;20060;-61
2022/05/16 06:04:47;;;;;;;9.05;3.90;;;;;;;19.80;50.00;100980.03;3558318;40;20060;-61
2022/05/16 06:07:14;;;;;;;5.65;3.40;;;;;;;20.03;50.15;101013.22;3561335;40;20061;-60
2022/05/16 06:09:39;;;;;;;4.65;3.10;;;;;;;20.04;49.44;101009.47;3558314;40;20065;-59
2022/05/16 06:12:06;;;;;;;7.85;3.55;;;;;;;20.10;50.20;101017.06;3560827;40;20049;-61
2022/05/16 06:14:33;;;;;;;9.45;3.33;;;;;;;20.17;49.89;101015.44;3560935;40;20077;-59
2022/05/16 06:16:59;;;;;;;7.05;3.53;;;;;;;20.26;49.68;101019.97;3558510;40;20128;-61
2022/05/16 06:19:25;;;;;;;5.55;3.08;;;;;;;20.34;49.61;101028.28;3559085;40;20061;-60
2022/05/16 06:21:51;;;;;;;8.13;3.45;;;;;;;20.38;49.36;101026.94;3558158;40;20079;-61
2022/05/16 06:27:02;;;;;;;9.65;4.07;;;;;;;20.38;48.98;101034.28;3558685;40;20075;-62
2022/05/16 06:29:29;;;;;;;8.27;3.60;;;;;;;20.38;49.89;101026.09;3559537;40;20312;-59
2022/05/16 06:31:55;;;;;;;9.25;3.28;;;;;;;20.37;50.26;101030.72;3558486;40;20064;-60
2022/05/16 06:34:20;;;;;;;12.55;4.00;;;;;;;20.36;49.29;101031.72;3559636;40;20069;-60
2022/05/16 06:36:47;;;;;;;14.77;4.40;;;;;;;20.36;50.80;101041.75;3558337;40;20060;-60
2022/05/16 06:39:13;;;;;;;14.15;4.68;;;;;;;20.38;49.97;101040.59;3558980;40;20127;-60
2022/05/16 06:41:39;;;;;;;9.10;3.90;;;;;;;20.40;50.29;101044.06;3559187;40;20109;-60
2022/05/16 06:44:06;;;;;;;8.23;3.75;;;;;;;20.43;49.54;101040.16;3558621;40;20080;-60
2022/05/16 06:46:31;;;;;;;8.93;4.00;;;;;;;20.36;49.70;101025.38;3558676;40;20095;-60
2022/05/16 06:48:57;;;;;;;10.70;4.10;;;;;;;20.57;49.96;101039.66;3558948;40;20069;-60
2022/05/16 06:51:23;;;;;;;7.90;3.80;;;;;;;20.71;49.83;101045.59;3559720;40;20139;-60
2022/05/16 06:53:51;;;;;;;7.45;4.03;;;;;;;20.83;50.19;101047.06;3559953;40;20135;-59
2022/05/16 06:56:17;;;;;;;8.35;3.00;;;;;;;20.91;50.08;101052.63;3558146;40;20061;-61
2022/05/16 06:58:43;;;;;;;8.98;3.40;;;;;;;21.02;50.43;101043.31;3548887;40;20053;-60
2022/05/16 07:01:08;;;;;;;8.77;4.13;;;;;;;21.04;49.43;101047.63;3559532;40;20492;-60
2022/05/16 07:03:34;;;;;;;10.75;3.45;;;;;;;21.07;50.18;101051.91;3560559;40;20747;-60
2022/05/16 07:06:00;;;;;;;7.82;3.00;;;;;;;21.06;50.21;101045.59;3559551;40;20171;-59
2022/05/16 07:08:25;;;;;;;6.35;3.15;;;;;;;21.14;49.51;101053.00;3560352;40;20045;-60
2022/05/16 07:10:53;;;;;;;8.55;3.00;;;;;;;21.09;49.61;101031.63;3559677;40;20765;-59
2022/05/16 07:13:20;;;;;;;6.40;2.92;;;;;;;21.31;50.19;101054.84;3558700;40;20059;-60
2022/05/16 07:15:45;;;;;;;8.32;3.42;;;;;;;21.41;49.96;101057.53;3560403;40;20057;-60
2022/05/16 07:18:12;;;;;;;9.55;2.85;;;;;;;21.53;49.48;101061.72;3561395;40;20122;-61
2022/05/16 07:20:40;;;;;;;9.43;3.38;;;;;;;21.73;49.69;101064.22;3560890;40;20073;-62
2022/05/16 07:23:07;;;;;;;7.68;3.03;;;;;;;21.91;49.92;101062.25;3561087;40;20165;-61
2022/05/16 07:27:56;;;;;;;6.70;3.00;;;;;;;22.04;49.25;101064.53;3560913;40;20060;-60
2022/05/16 07:28:20;;;;;;;8.90;3.00;;;;;;;22.01;48.83;101048.44;3560852;40;20407;-60
2022/05/16 07:30:46;;;;;;;5.72;3.15;;;;;;;22.23;48.48;101064.34;3560233;40;20045;-61
2022/05/16 07:33:12;;;;;;;10.70;3.05;;;;;;;22.32;48.91;101067.97;3560204;40;20426;-61
2022/05/16 07:35:38;;;;;;;5.78;2.92;;;;;;;22.36;48.57;101069.38;3560201;40;20069;-61
2022/05/16 07:38:05;;;;;;;6.18;2.60;;;;;;;22.47;49.33;101060.81;3559588;40;20123;-60
2022/05/16 07:40:37;;;;;;;9.57;2.83;;;;;;;22.55;49.12;101070.97;3559957;40;20052;-62
2022/05/16 07:43:03;;;;;;;6.20;2.70;;;;;;;22.61;49.07;101069.41;3561956;40;20073;-61
2022/05/16 07:45:31;;;;;;;5.90;2.75;;;;;;;22.65;48.71;101071.66;3557780;40;20060;-60
2022/05/16 07:48:00;;;;;;;5.90;2.72;;;;;;;22.67;48.41;101074.22;3558486;40;20092;-61
2022/05/16 07:50:25;;;;;;;7.90;2.90;;;;;;;22.70;48.84;101079.38;3557133;40;20041;-61
2022/05/16 07:52:51;;;;;;;8.45;2.90;;;;;;;22.73;49.17;101080.94;3556747;40;20123;-60
2022/05/16 07:55:24;;;;;;;6.40;3.00;;;;;;;22.70;49.21;101082.97;3558615;40;20061;-61
2022/05/16 07:57:50;;;;;;;7.47;2.85;;;;;;;22.71;49.70;101081.09;3558178;40;20053;-61
2022/05/16 08:00:19;;;;;;;4.88;2.60;;;;;;;22.75;49.54;101084.38;3554264;40;20076;-61
2022/05/16 08:02:44;;;;;;;4.93;2.55;;;;;;;22.89;49.67;101083.69;3556335;40;20123;-61
2022/05/16 08:05:15;;;;;;;7.97;2.90;;;;;;;23.22;48.77;101083.78;3559608;40;20053;-61
2022/05/16 08:10:29;;;;;;;11.27;2.80;;;;;;;23.49;48.38;101086.16;3555602;40;20056;-63
2022/05/16 08:12:54;;;;;;;7.20;2.85;;;;;;;23.54;48.36;101093.88;3556448;40;20764;-63
2022/05/16 08:15:20;;;;;;;4.80;2.58;;;;;;;23.67;47.50;101096.09;3556666;40;20049;-63
2022/05/16 08:17:45;;;;;;;8.18;3.13;;;;;;;23.74;47.45;101062.28;3554304;40;20400;-63
2022/05/16 08:20:11;;;;;;;9.68;2.67;;;;;;;24.31;46.64;101092.31;3547014;40;20053;-63
2022/05/16 08:22:37;;;;;;;7.28;2.80;;;;;;;24.81;45.45;101103.94;3555666;40;20112;-62
2022/05/16 08:25:04;;;;;;;5.22;2.90;;;;;;;25.30;44.47;101098.13;3557803;40;20061;-62
2022/05/16 08:27:29;;;;;;;7.53;2.30;;;;;;;25.72;43.06;101107.72;3555542;40;20057;-63
2022/05/16 08:29:55;;;;;;;11.68;2.90;;;;;;;26.08;42.09;101102.38;3556540;40;20157;-63
2022/05/16 08:32:23;;;;;;;8.80;2.70;;;;;;;26.45;40.90;101103.31;3557669;40;20053;-62
2022/05/16 08:34:58;;;;;;;5.88;2.30;;;;;;;26.78;40.19;101100.13;3555286;40;20052;-63
2022/05/16 08:40:09;;;;;;;7.93;2.70;;;;;;;27.20;39.37;101098.47;3556727;40;20348;-63
2022/05/16 08:43:01;;;;;;;5.93;2.38;;;;;;;27.34;38.45;101100.31;3555156;40;20123;-64
2022/05/16 08:45:39;;;;;;;6.57;2.80;;;;;;;27.65;37.96;101105.44;3557283;40;20049;-64
2022/05/16 08:48:21;;;;;;;7.20;2.70;;;;;;;27.79;38.10;101095.41;3559058;40;20389;-63
2022/05/16 08:51:00;;;;;;;6.53;2.13;;;;;;;28.17;38.58;101092.25;3555463;40;20061;-63
2022/05/16 08:53:39;;;;;;;7.63;2.33;;;;;;;28.43;37.32;101102.63;3559181;40;20127;-63
2022/05/16 08:56:14;;;;;;;5.93;2.55;;;;;;;28.62;36.43;101096.31;3559226;40;20050;-64
2022/05/16 08:58:57;;;;;;;8.10;2.70;;;;;;;28.86;36.60;101102.31;3559500;40;20085;-64
2022/05/16 09:01:31;;;;;;;;;;;;;;;28.99;35.22;101095.97;3556696;40;20050;-63
2022/05/16 09:04:06;;;;;;;7.28;2.38;;;;;;;29.12;35.77;101090.53;3558363;40;20027;-64
2022/05/16 09:06:49;;;;;;;5.00;2.53;;;;;;;29.34;35.19;101094.81;3555552;40;20058;-64
2022/05/16 09:09:26;;;;;;;3.60;2.20;;;;;;;29.69;35.75;101094.63;3556505;40;20056;-63
2022/05/16 09:12:15;;;;;;;7.22;2.30;;;;;;;29.73;34.20;101092.25;3556306;40;20432;-63
2022/05/16 09:15:26;;;;;;;3.30;2.15;;;;;;;29.40;34.47;101095.84;3559054;40;20054;-63
2022/05/16 09:18:01;;;;;;;7.55;2.38;;;;;;;29.26;34.87;101102.44;3556113;40;20061;-63
2022/05/16 09:20:49;;;;;;;7.65;2.40;;;;;;;29.33;35.61;101109.69;3558304;40;20345;-63
2022/05/16 09:23:31;;;;;;;8.07;3.10;;;;;;;29.57;34.77;101105.44;3557154;40;20404;-64
2022/05/16 09:26:30;;;;;;;14.20;4.22;;;;;;;29.83;34.55;101104.59;3558964;40;20388;-64
2022/05/16 09:29:05;;;;;;;4.20;2.55;;;;;;;30.03;34.11;101106.50;3557893;40;20127;-63
2022/05/16 09:31:42;;;;;;;4.80;2.17;;;;;;;30.03;34.41;101104.56;3555398;40;20108;-63
2022/05/16 09:34:09;;;;;;;7.07;2.25;;;;;;;30.15;33.34;101101.97;3557159;40;20535;-63
2022/05/16 09:36:49;;;;;;;8.60;2.50;;;;;;;30.27;34.48;101114.13;3559138;40;20058;-63
2022/05/16 09:39:35;;;;;;;5.63;2.45;;;;;;;30.51;33.21;101111.69;3557847;40;20096;-64
2022/05/16 09:42:13;;;;;;;6.45;2.38;;;;;;;30.60;33.24;101115.94;3555238;40;20052;-63
2022/05/16 09:45:28;;;;;;;5.50;2.45;;;;;;;30.81;33.47;101112.03;3557508;40;20054;-63
2022/05/16 09:47:54;;;;;;;4.40;2.60;;;;;;;30.96;33.10;101122.84;3558703;40;20108;-63
2022/05/16 09:50:27;;;;;;;5.82;2.42;;;;;;;30.74;32.73;101119.53;3553154;40;20053;-63
2022/05/16 09:53:02;;;;;;;3.70;2.42;;;;;;;30.60;33.61;101138.13;3554540;40;20066;-64
2022/05/16 09:55:44;;;;;;;5.40;2.50;;;;;;;30.39;33.69;101135.69;3558406;40;20053;-63
2022/05/16 09:58:19;;;;;;;4.10;2.80;;;;;;;30.19;33.84;101136.56;3556155;40;20050;-63
2022/05/16 10:00:59;;;;;;;8.95;2.95;;;;;;;30.07;34.15;101147.44;3556186;40;20049;-64
2022/05/16 10:03:43;;;;;;;7.47;2.63;;;;;;;29.81;34.46;101159.41;3559635;40;20097;-64
2022/05/16 10:06:29;;;;;;;8.82;2.83;;;;;;;29.50;35.15;101160.00;3558473;40;20060;-64
2022/05/16 10:08:54;;;;;;;6.72;2.83;;;;;;;29.27;35.29;101165.91;3556112;40;20152;-64
2022/05/16 10:11:26;;;;;;;6.28;2.72;;;;;;;29.13;36.22;101159.50;3556465;40;20427;-63
2022/05/16 10:13:52;;;;;;;8.57;3.22;;;;;;;28.97;36.34;101164.53;3558543;40;20093;-63
2022/05/16 10:16:20;;;;;;;5.30;3.00;;;;;;;28.68;36.96;101174.88;3557195;40;20050;-64
2022/05/16 10:18:54;;;;;;;7.85;2.90;;;;;;;28.29;37.61;101179.09;3556327;40;20078;-63
2022/05/16 10:21:53;;;;;;;16.08;3.40;;;;;;;27.81;39.70;101189.97;3559951;40;20125;-63
2022/05/16 10:24:23;;;;;;;8.48;3.20;;;;;;;27.36;41.22;101199.50;3558864;40;20057;-63
2022/05/16 10:26:56;;;;;;;13.35;3.55;;;;;;;26.88;44.23;101218.44;3559241;40;20354;-63
2022/05/16 10:29:32;;;;;;;19.45;3.95;;;;;;;26.34;48.09;101216.81;3557637;40;20332;-63
2022/05/16 10:35:02;;;;;;;10.50;4.35;;;;;;;24.54;57.59;101238.09;3559595;40;20057;-64
2022/05/16 10:37:32;;;;;;;9.13;4.10;;;;;;;23.96;60.33;101228.22;3555482;40;20054;-64
2022/05/16 10:40:18;;;;;;;9.48;4.47;;;;;;;23.46;61.88;101200.88;3556137;40;20089;-64
2022/05/16 10:43:26;;;;;;;10.00;4.45;;;;;;;23.55;63.48;101243.78;3558173;40;20132;-64
2022/05/16 10:46:10;;;;;;;8.45;4.55;;;;;;;23.86;64.25;101244.84;3561486;40;20131;-64
2022/05/16 10:48:51;;;;;;;9.50;4.50;;;;;;;23.97;63.44;101209.84;3554897;40;20048;-64
2022/05/16 10:51:40;;;;;;;7.40;4.15;;;;;;;24.59;64.88;101254.06;3560727;40;20416;-64
2022/05/16 10:54:18;;;;;;;10.20;4.05;;;;;;;24.72;58.71;101259.88;3556343;40;20049;-64
2022/05/16 10:57:13;;;;;;;9.52;4.60;;;;;;;24.79;58.18;101260.00;3549406;40;20056;-64
2022/05/16 11:00:14;;;;;;;12.82;5.22;;;;;;;24.92;59.12;101265.78;3560599;40;20060;-64
2022/05/16 11:03:43;;;;;;;10.43;4.30;;;;;;;24.95;57.30;101264.59;3556855;40;20100;-65
2022/05/16 11:06:42;;;;;;;9.35;3.65;;;;;;;24.94;55.57;101260.13;3559267;40;20060;-64
2022/05/16 11:10:02;;;;;;;8.02;4.28;;;;;;;24.88;52.64;101264.44;3555894;40;20064;-64
2022/05/16 11:12:51;;;;;;;8.50;3.95;;;;;;;24.81;51.53;101263.44;3524846;40;20047;-64
2022/05/16 11:15:43;;;;;;;8.85;4.13;;;;;;;24.73;52.13;101269.81;3528188;40;20123;-64
2022/05/16 11:20:44;;;;;;;12.52;4.22;;;;;;;24.78;53.44;101269.31;3576780;40;20052;-68
2022/05/16 11:23:37;;;;;;;9.70;5.07;;;;;;;24.80;53.96;101261.72;3574053;40;20047;-69
2022/05/16 11:26:06;;;;;;;6.68;4.18;;;;;;;24.79;53.19;101266.34;3578941;40;20130;-68
2022/05/16 11:31:52;;;;;;;12.00;6.57;;;;;;;24.44;57.23;101275.06;3575241;40;20059;-67
2022/05/16 11:34:40;;;;;;;13.40;5.50;;;;;;;24.10;58.14;101254.09;3577473;40;20051;-68
2022/05/16 11:37:51;;;;;;;8.98;5.50;;;;;;;24.04;58.83;101271.28;3578476;40;20053;-68
2022/05/16 11:41:32;;;;;;;7.47;5.25;;;;;;;23.86;58.79;101272.31;3575839;40;20377;-67
2022/05/16 11:44:23;;;;;;;7.63;5.53;;;;;;;23.70;58.24;101269.56;3550183;40;20099;-69
2022/05/16 11:46:57;;;;;;;6.60;5.13;;;;;;;23.66;58.80;101276.41;3578079;40;20323;-67
2022/05/16 11:50:04;;;;;;;9.52;5.60;;;;;;;23.43;58.68;101267.06;3575753;40;20060;-66
2022/05/16 11:53:15;;;;;;;8.77;4.97;;;;;;;23.49;57.35;101288.34;3575804;40;20103;-67
2022/05/16 12:01:39;;;;;;;7.00;4.30;;;;;;;23.37;57.71;101280.47;3574850;40;20059;-67
2022/05/16 12:04:23;;;;;;;8.52;5.88;;;;;;;23.46;57.71;101305.16;3578549;40;20064;-68
2022/05/16 12:06:59;;;;;;;10.00;6.78;;;;;;;23.45;58.26;101306.19;3575511;40;20060;-68
2022/05/16 12:09:32;;;;;;;13.60;8.27;;;;;;;23.07;58.86;101256.34;3578697;40;20126;-68
2022/05/16 12:12:32;;;;;;;13.73;8.07;;;;;;;23.33;59.59;101311.97;3578086;40;20052;-67
2022/05/16 12:15:16;;;;;;;12.63;8.85;;;;;;;23.34;59.53;101321.06;3579042;40;20122;-67
2022/05/16 12:18:00;;;;;;;17.38;9.52;;;;;;;23.34;59.45;101321.06;3580269;40;20044;-67
2022/05/16 12:21:00;;;;;;;13.35;8.15;;;;;;;23.28;60.23;101322.59;3578012;40;20058;-68
2022/05/16 12:23:52;;;;;;;12.60;9.18;;;;;;;23.34;60.52;101340.25;3578771;40;20045;-67